sensor_id;sensor_type;location;lat;lon;timestamp;P1;P2;P0
69350;PMS7003;57106;51.446;-2.606;2023-01-15T00:02:17;1;0;
69350;PMS7003;57106;51.446;-2.606;2023-01-15T00:04:42;3;2;
69350;PMS7003;57106;51.446;-2.606;2023-01-15T00:07:08;0;0;
69350;PMS7003;57106;51.446;-2.606;2023-01-15T00:09:34;1;1;
69350;PMS7003;57106;51.446;-2.606;2023-01-15T00:11:59;0;0;
69350;PMS7003;57106;51.446;-2.606;2023-01-15T00:14:25;1;1;
69350;PMS7003;57106;51.446;-2.606;2023-01-15T00:16:51;1;0;
69350;PMS7003;57106;51.446;-2.606;2023-01-15T00:19:16;1;1;
69350;PMS7003;57106;51.446;-2.606;2023-01-15T00:21:42;0;0;
69350;PMS7003;57106;51.446;-2.606;2023-01-15T00:26:34;2;0;
69350;PMS7003;57106;51.446;-2.606;2023-01-15T00:28:59;0;0;
69350;PMS7003;57106;51.446;-2.606;2023-01-15T00:31:25;0;0;
69350;PMS7003;57106;51.446;-2.606;2023-01-15T00:33:50;0;0;
69350;PMS7003;57106;51.446;-2.606;2023-01-15T00:36:16;1;0;
69350;PMS7003;57106;51.446;-2.606;2023-01-15T00:38:42;0;0;
69350;PMS7003;57106;51.446;-2.606;2023-01-15T00:41:08;0;0;
69350;PMS7003;57106;51.446;-2.606;2023-01-15T00:43:33;2;0;
69350;PMS7003;57106;51.446;-2.606;2023-01-15T00:45:59;2;1;
69350;PMS7003;57106;51.446;-2.606;2023-01-15T00:48:24;0;0;
69350;PMS7003;57106;51.446;-2.606;2023-01-15T00:50:50;0;0;
69350;PMS7003;57106;51.446;-2.606;2023-01-15T00:53:16;1;0;
69350;PMS7003;57106;51.446;-2.606;2023-01-15T00:55:42;1;1;
69350;PMS7003;57106;51.446;-2.606;2023-01-15T00:58:07;1;0;
69350;PMS7003;57106;51.446;-2.606;2023-01-15T01:00:33;0;0;
69350;PMS7003;57106;51.446;-2.606;2023-01-15T01:02:58;0;0;
69350;PMS7003;57106;51.446;-2.606;2023-01-15T01:05:24;0;0;
69350;PMS7003;57106;51.446;-2.606;2023-01-15T01:07:50;1;1;
69350;PMS7003;57106;51.446;-2.606;2023-01-15T01:10:16;1;0;
69350;PMS7003;57106;51.446;-2.606;2023-01-15T01:12:41;0;0;
69350;PMS7003;57106;51.446;-2.606;2023-01-15T01:15:07;2;0;
69350;PMS7003;57106;51.446;-2.606;2023-01-15T01:17:32;2;0;
69350;PMS7003;57106;51.446;-2.606;2023-01-15T01:19:58;1;0;
69350;PMS7003;57106;51.446;-2.606;2023-01-15T01:22:24;1;0;
69350;PMS7003;57106;51.446;-2.606;2023-01-15T01:24:49;2;1;
69350;PMS7003;57106;51.446;-2.606;2023-01-15T01:27:15;1;0;
69350;PMS7003;57106;51.446;-2.606;2023-01-15T01:29:41;0;0;
69350;PMS7003;57106;51.446;-2.606;2023-01-15T01:32:06;3;1;
69350;PMS7003;57106;51.446;-2.606;2023-01-15T01:34:32;2;0;
69350;PMS7003;57106;51.446;-2.606;2023-01-15T01:36:58;1;1;
69350;PMS7003;57106;51.446;-2.606;2023-01-15T01:39:24;2;0;
69350;PMS7003;57106;51.446;-2.606;2023-01-15T01:41:49;1;1;
69350;PMS7003;57106;51.446;-2.606;2023-01-15T01:46:40;0;0;
69350;PMS7003;57106;51.446;-2.606;2023-01-15T01:49:07;2;1;
69350;PMS7003;57106;51.446;-2.606;2023-01-15T01:51:33;1;1;
69350;PMS7003;57106;51.446;-2.606;2023-01-15T01:53:57;0;0;
69350;PMS7003;57106;51.446;-2.606;2023-01-15T01:56:23;1;0;
69350;PMS7003;57106;51.446;-2.606;2023-01-15T01:58:50;0;0;
69350;PMS7003;57106;51.446;-2.606;2023-01-15T02:01:15;0;0;
69350;PMS7003;57106;51.446;-2.606;2023-01-15T02:03:41;0;0;
69350;PMS7003;57106;51.446;-2.606;2023-01-15T02:06:07;3;0;
69350;PMS7003;57106;51.446;-2.606;2023-01-15T02:08:32;2;1;
69350;PMS7003;57106;51.446;-2.606;2023-01-15T02:10:57;0;0;
69350;PMS7003;57106;51.446;-2.606;2023-01-15T02:13:24;6;1;
69350;PMS7003;57106;51.446;-2.606;2023-01-15T02:15:50;0;0;
69350;PMS7003;57106;51.446;-2.606;2023-01-15T02:18:16;2;1;
69350;PMS7003;57106;51.446;-2.606;2023-01-15T02:20:41;1;0;
69350;PMS7003;57106;51.446;-2.606;2023-01-15T02:23:09;0;0;
69350;PMS7003;57106;51.446;-2.606;2023-01-15T02:25:32;2;0;
69350;PMS7003;57106;51.446;-2.606;2023-01-15T02:27:59;1;1;
69350;PMS7003;57106;51.446;-2.606;2023-01-15T02:30:24;0;0;
69350;PMS7003;57106;51.446;-2.606;2023-01-15T02:32:50;3;1;
69350;PMS7003;57106;51.446;-2.606;2023-01-15T02:35:15;2;1;
69350;PMS7003;57106;51.446;-2.606;2023-01-15T02:37:40;0;0;
69350;PMS7003;57106;51.446;-2.606;2023-01-15T02:40:06;0;0;
69350;PMS7003;57106;51.446;-2.606;2023-01-15T02:42:31;1;0;
69350;PMS7003;57106;51.446;-2.606;2023-01-15T02:44:57;0;0;
69350;PMS7003;57106;51.446;-2.606;2023-01-15T02:47:24;0;0;
69350;PMS7003;57106;51.446;-2.606;2023-01-15T02:49:48;0;0;
69350;PMS7003;57106;51.446;-2.606;2023-01-15T02:52:15;0;0;
69350;PMS7003;57106;51.446;-2.606;2023-01-15T02:54:40;1;0;
69350;PMS7003;57106;51.446;-2.606;2023-01-15T02:57:05;3;2;
69350;PMS7003;57106;51.446;-2.606;2023-01-15T02:59:33;3;1;
69350;PMS7003;57106;51.446;-2.606;2023-01-15T03:01:57;0;0;
69350;PMS7003;57106;51.446;-2.606;2023-01-15T03:04:25;1;0;
69350;PMS7003;57106;51.446;-2.606;2023-01-15T03:06:49;0;0;
69350;PMS7003;57106;51.446;-2.606;2023-01-15T03:09:14;0;0;
69350;PMS7003;57106;51.446;-2.606;2023-01-15T03:11:41;0;0;
69350;PMS7003;57106;51.446;-2.606;2023-01-15T03:14:06;1;0;
69350;PMS7003;57106;51.446;-2.606;2023-01-15T03:16:32;0;0;
69350;PMS7003;57106;51.446;-2.606;2023-01-15T03:21:25;0;0;
69350;PMS7003;57106;51.446;-2.606;2023-01-15T03:23:49;0;0;
69350;PMS7003;57106;51.446;-2.606;2023-01-15T03:26:14;0;0;
69350;PMS7003;57106;51.446;-2.606;2023-01-15T03:28:39;0;0;
69350;PMS7003;57106;51.446;-2.606;2023-01-15T03:31:05;0;0;
69350;PMS7003;57106;51.446;-2.606;2023-01-15T03:33:31;1;1;
69350;PMS7003;57106;51.446;-2.606;2023-01-15T03:35:57;0;0;
69350;PMS7003;57106;51.446;-2.606;2023-01-15T03:38:23;0;0;
69350;PMS7003;57106;51.446;-2.606;2023-01-15T03:40:49;1;1;
69350;PMS7003;57106;51.446;-2.606;2023-01-15T03:43:13;0;0;
69350;PMS7003;57106;51.446;-2.606;2023-01-15T03:48:07;1;1;
69350;PMS7003;57106;51.446;-2.606;2023-01-15T03:50:31;0;0;
69350;PMS7003;57106;51.446;-2.606;2023-01-15T03:53:04;0;0;
69350;PMS7003;57106;51.446;-2.606;2023-01-15T03:55:23;2;0;
69350;PMS7003;57106;51.446;-2.606;2023-01-15T03:57:48;0;0;
69350;PMS7003;57106;51.446;-2.606;2023-01-15T04:00:14;0;0;
69350;PMS7003;57106;51.446;-2.606;2023-01-15T04:02:39;0;0;
69350;PMS7003;57106;51.446;-2.606;2023-01-15T04:05:05;0;0;
69350;PMS7003;57106;51.446;-2.606;2023-01-15T04:07:30;0;0;
69350;PMS7003;57106;51.446;-2.606;2023-01-15T04:09:56;0;0;
69350;PMS7003;57106;51.446;-2.606;2023-01-15T04:12:21;0;0;
69350;PMS7003;57106;51.446;-2.606;2023-01-15T04:14:47;1;0;
69350;PMS7003;57106;51.446;-2.606;2023-01-15T04:17:13;4;1;
69350;PMS7003;57106;51.446;-2.606;2023-01-15T04:19:38;3;0;
69350;PMS7003;57106;51.446;-2.606;2023-01-15T04:22:04;0;0;
69350;PMS7003;57106;51.446;-2.606;2023-01-15T04:24:30;0;0;
69350;PMS7003;57106;51.446;-2.606;2023-01-15T04:26:57;0;0;
69350;PMS7003;57106;51.446;-2.606;2023-01-15T04:29:21;1;0;
69350;PMS7003;57106;51.446;-2.606;2023-01-15T04:31:47;1;0;
69350;PMS7003;57106;51.446;-2.606;2023-01-15T04:34:13;0;0;
69350;PMS7003;57106;51.446;-2.606;2023-01-15T04:36:38;1;0;
69350;PMS7003;57106;51.446;-2.606;2023-01-15T04:39:04;1;0;
69350;PMS7003;57106;51.446;-2.606;2023-01-15T04:41:30;3;0;
69350;PMS7003;57106;51.446;-2.606;2023-01-15T04:43:55;0;0;
69350;PMS7003;57106;51.446;-2.606;2023-01-15T04:46:21;1;0;
69350;PMS7003;57106;51.446;-2.606;2023-01-15T04:48:47;0;0;
69350;PMS7003;57106;51.446;-2.606;2023-01-15T04:51:12;1;1;
69350;PMS7003;57106;51.446;-2.606;2023-01-15T04:53:38;1;1;
69350;PMS7003;57106;51.446;-2.606;2023-01-15T04:56:04;0;0;
69350;PMS7003;57106;51.446;-2.606;2023-01-15T04:58:30;0;0;
69350;PMS7003;57106;51.446;-2.606;2023-01-15T05:00:55;0;0;
69350;PMS7003;57106;51.446;-2.606;2023-01-15T05:03:21;0;0;
69350;PMS7003;57106;51.446;-2.606;2023-01-15T05:05:47;2;1;
69350;PMS7003;57106;51.446;-2.606;2023-01-15T05:08:12;0;0;
69350;PMS7003;57106;51.446;-2.606;2023-01-15T05:10:38;0;0;
69350;PMS7003;57106;51.446;-2.606;2023-01-15T05:13:04;1;0;
69350;PMS7003;57106;51.446;-2.606;2023-01-15T05:15:29;1;0;
69350;PMS7003;57106;51.446;-2.606;2023-01-15T05:17:56;1;0;
69350;PMS7003;57106;51.446;-2.606;2023-01-15T05:20:21;0;0;
69350;PMS7003;57106;51.446;-2.606;2023-01-15T05:22:46;1;0;
69350;PMS7003;57106;51.446;-2.606;2023-01-15T05:25:12;0;0;
69350;PMS7003;57106;51.446;-2.606;2023-01-15T05:27:38;0;0;
69350;PMS7003;57106;51.446;-2.606;2023-01-15T05:30:04;0;0;
69350;PMS7003;57106;51.446;-2.606;2023-01-15T05:32:29;0;0;
69350;PMS7003;57106;51.446;-2.606;2023-01-15T05:34:55;1;0;
69350;PMS7003;57106;51.446;-2.606;2023-01-15T05:37:21;0;0;
69350;PMS7003;57106;51.446;-2.606;2023-01-15T05:39:46;0;0;
69350;PMS7003;57106;51.446;-2.606;2023-01-15T05:42:12;1;0;
69350;PMS7003;57106;51.446;-2.606;2023-01-15T05:44:38;0;0;
69350;PMS7003;57106;51.446;-2.606;2023-01-15T05:47:03;0;0;
69350;PMS7003;57106;51.446;-2.606;2023-01-15T05:49:29;0;0;
69350;PMS7003;57106;51.446;-2.606;2023-01-15T05:51:55;0;0;
69350;PMS7003;57106;51.446;-2.606;2023-01-15T05:54:21;0;0;
69350;PMS7003;57106;51.446;-2.606;2023-01-15T05:56:46;0;0;
69350;PMS7003;57106;51.446;-2.606;2023-01-15T05:59:12;0;0;
69350;PMS7003;57106;51.446;-2.606;2023-01-15T06:01:38;0;0;
69350;PMS7003;57106;51.446;-2.606;2023-01-15T06:04:04;1;0;
69350;PMS7003;57106;51.446;-2.606;2023-01-15T06:06:29;1;1;
69350;PMS7003;57106;51.446;-2.606;2023-01-15T06:08:54;0;0;
69350;PMS7003;57106;51.446;-2.606;2023-01-15T06:11:20;1;1;
69350;PMS7003;57106;51.446;-2.606;2023-01-15T06:13:46;0;0;
69350;PMS7003;57106;51.446;-2.606;2023-01-15T06:16:17;0;0;
69350;PMS7003;57106;51.446;-2.606;2023-01-15T06:18:38;0;0;
69350;PMS7003;57106;51.446;-2.606;2023-01-15T06:21:03;1;0;
69350;PMS7003;57106;51.446;-2.606;2023-01-15T06:23:29;0;0;
69350;PMS7003;57106;51.446;-2.606;2023-01-15T06:25:58;0;0;
69350;PMS7003;57106;51.446;-2.606;2023-01-15T06:28:20;0;0;
69350;PMS7003;57106;51.446;-2.606;2023-01-15T06:30:46;1;0;
69350;PMS7003;57106;51.446;-2.606;2023-01-15T06:33:13;1;1;
69350;PMS7003;57106;51.446;-2.606;2023-01-15T06:35:37;1;1;
69350;PMS7003;57106;51.446;-2.606;2023-01-15T06:38:03;0;0;
69350;PMS7003;57106;51.446;-2.606;2023-01-15T06:40:28;1;0;
69350;PMS7003;57106;51.446;-2.606;2023-01-15T06:42:56;1;1;
69350;PMS7003;57106;51.446;-2.606;2023-01-15T06:45:20;2;1;
69350;PMS7003;57106;51.446;-2.606;2023-01-15T06:47:46;1;1;
69350;PMS7003;57106;51.446;-2.606;2023-01-15T06:50:12;1;0;
69350;PMS7003;57106;51.446;-2.606;2023-01-15T06:52:37;0;0;
69350;PMS7003;57106;51.446;-2.606;2023-01-15T06:55:03;0;0;
69350;PMS7003;57106;51.446;-2.606;2023-01-15T06:57:28;2;1;
69350;PMS7003;57106;51.446;-2.606;2023-01-15T06:59:54;1;1;
69350;PMS7003;57106;51.446;-2.606;2023-01-15T07:02:20;0;0;
69350;PMS7003;57106;51.446;-2.606;2023-01-15T07:04:45;1;1;
69350;PMS7003;57106;51.446;-2.606;2023-01-15T07:07:11;2;1;
69350;PMS7003;57106;51.446;-2.606;2023-01-15T07:09:37;0;0;
69350;PMS7003;57106;51.446;-2.606;2023-01-15T07:12:02;1;1;
69350;PMS7003;57106;51.446;-2.606;2023-01-15T07:14:28;1;1;
69350;PMS7003;57106;51.446;-2.606;2023-01-15T07:16:54;2;0;
69350;PMS7003;57106;51.446;-2.606;2023-01-15T07:19:19;3;1;
69350;PMS7003;57106;51.446;-2.606;2023-01-15T07:21:45;1;0;
69350;PMS7003;57106;51.446;-2.606;2023-01-15T07:24:11;0;0;
69350;PMS7003;57106;51.446;-2.606;2023-01-15T07:26:37;0;0;
69350;PMS7003;57106;51.446;-2.606;2023-01-15T07:29:02;3;0;
69350;PMS7003;57106;51.446;-2.606;2023-01-15T07:31:28;0;0;
69350;PMS7003;57106;51.446;-2.606;2023-01-15T07:33:54;2;1;
69350;PMS7003;57106;51.446;-2.606;2023-01-15T07:36:19;2;0;
69350;PMS7003;57106;51.446;-2.606;2023-01-15T07:38:45;0;0;
69350;PMS7003;57106;51.446;-2.606;2023-01-15T07:41:10;1;1;
69350;PMS7003;57106;51.446;-2.606;2023-01-15T07:43:36;1;1;
69350;PMS7003;57106;51.446;-2.606;2023-01-15T07:46:02;0;0;
69350;PMS7003;57106;51.446;-2.606;2023-01-15T07:48:28;1;1;
69350;PMS7003;57106;51.446;-2.606;2023-01-15T07:50:53;2;1;
69350;PMS7003;57106;51.446;-2.606;2023-01-15T07:53:19;2;1;
69350;PMS7003;57106;51.446;-2.606;2023-01-15T07:55:45;2;1;
69350;PMS7003;57106;51.446;-2.606;2023-01-15T07:58:11;1;1;
69350;PMS7003;57106;51.446;-2.606;2023-01-15T08:00:36;3;1;
69350;PMS7003;57106;51.446;-2.606;2023-01-15T08:03:02;1;1;
69350;PMS7003;57106;51.446;-2.606;2023-01-15T08:05:27;2;0;
69350;PMS7003;57106;51.446;-2.606;2023-01-15T08:07:54;0;0;
69350;PMS7003;57106;51.446;-2.606;2023-01-15T08:10:19;1;1;
69350;PMS7003;57106;51.446;-2.606;2023-01-15T08:12:45;1;1;
69350;PMS7003;57106;51.446;-2.606;2023-01-15T08:15:11;1;1;
69350;PMS7003;57106;51.446;-2.606;2023-01-15T08:17:36;2;1;
69350;PMS7003;57106;51.446;-2.606;2023-01-15T08:20:02;2;2;
69350;PMS7003;57106;51.446;-2.606;2023-01-15T08:22:27;4;1;
69350;PMS7003;57106;51.446;-2.606;2023-01-15T08:24:53;1;1;
69350;PMS7003;57106;51.446;-2.606;2023-01-15T08:27:19;6;1;
69350;PMS7003;57106;51.446;-2.606;2023-01-15T08:29:44;4;1;
69350;PMS7003;57106;51.446;-2.606;2023-01-15T08:32:10;0;0;
69350;PMS7003;57106;51.446;-2.606;2023-01-15T08:34:36;1;0;
69350;PMS7003;57106;51.446;-2.606;2023-01-15T08:37:01;2;1;
69350;PMS7003;57106;51.446;-2.606;2023-01-15T08:39:27;2;1;
69350;PMS7003;57106;51.446;-2.606;2023-01-15T08:41:53;5;1;
69350;PMS7003;57106;51.446;-2.606;2023-01-15T08:44:20;0;0;
69350;PMS7003;57106;51.446;-2.606;2023-01-15T08:46:51;2;0;
69350;PMS7003;57106;51.446;-2.606;2023-01-15T08:49:10;3;0;
69350;PMS7003;57106;51.446;-2.606;2023-01-15T08:51:36;3;3;
69350;PMS7003;57106;51.446;-2.606;2023-01-15T08:54:01;3;2;
69350;PMS7003;57106;51.446;-2.606;2023-01-15T08:56:27;5;1;
69350;PMS7003;57106;51.446;-2.606;2023-01-15T08:58:53;1;1;
69350;PMS7003;57106;51.446;-2.606;2023-01-15T09:01:19;4;1;
69350;PMS7003;57106;51.446;-2.606;2023-01-15T09:03:44;1;0;
69350;PMS7003;57106;51.446;-2.606;2023-01-15T09:06:10;1;1;
69350;PMS7003;57106;51.446;-2.606;2023-01-15T09:08:35;3;1;
69350;PMS7003;57106;51.446;-2.606;2023-01-15T09:11:02;0;0;
69350;PMS7003;57106;51.446;-2.606;2023-01-15T09:13:27;2;1;
69350;PMS7003;57106;51.446;-2.606;2023-01-15T09:15:52;1;1;
69350;PMS7003;57106;51.446;-2.606;2023-01-15T09:18:18;1;0;
69350;PMS7003;57106;51.446;-2.606;2023-01-15T09:20:44;2;1;
69350;PMS7003;57106;51.446;-2.606;2023-01-15T09:23:09;1;1;
69350;PMS7003;57106;51.446;-2.606;2023-01-15T09:25:35;2;1;
69350;PMS7003;57106;51.446;-2.606;2023-01-15T09:28:01;2;2;
69350;PMS7003;57106;51.446;-2.606;2023-01-15T09:30:26;2;1;
69350;PMS7003;57106;51.446;-2.606;2023-01-15T09:32:57;3;0;
69350;PMS7003;57106;51.446;-2.606;2023-01-15T09:35:19;3;1;
69350;PMS7003;57106;51.446;-2.606;2023-01-15T09:37:46;1;1;
69350;PMS7003;57106;51.446;-2.606;2023-01-15T09:42:37;1;0;
69350;PMS7003;57106;51.446;-2.606;2023-01-15T09:45:06;1;1;
69350;PMS7003;57106;51.446;-2.606;2023-01-15T09:47:29;2;1;
69350;PMS7003;57106;51.446;-2.606;2023-01-15T09:49:59;1;1;
69350;PMS7003;57106;51.446;-2.606;2023-01-15T09:52:21;2;0;
69350;PMS7003;57106;51.446;-2.606;2023-01-15T09:54:46;0;0;
69350;PMS7003;57106;51.446;-2.606;2023-01-15T09:57:09;0;0;
69350;PMS7003;57106;51.446;-2.606;2023-01-15T09:59:35;1;0;
69350;PMS7003;57106;51.446;-2.606;2023-01-15T10:04:30;1;1;
69350;PMS7003;57106;51.446;-2.606;2023-01-15T10:06:53;1;1;
69350;PMS7003;57106;51.446;-2.606;2023-01-15T10:09:19;1;1;
69350;PMS7003;57106;51.446;-2.606;2023-01-15T10:11:44;2;0;
69350;PMS7003;57106;51.446;-2.606;2023-01-15T10:14:10;0;0;
69350;PMS7003;57106;51.446;-2.606;2023-01-15T10:16:34;2;1;
69350;PMS7003;57106;51.446;-2.606;2023-01-15T10:19:00;2;0;
69350;PMS7003;57106;51.446;-2.606;2023-01-15T10:21:27;1;1;
69350;PMS7003;57106;51.446;-2.606;2023-01-15T10:23:55;1;0;
69350;PMS7003;57106;51.446;-2.606;2023-01-15T10:26:22;1;1;
69350;PMS7003;57106;51.446;-2.606;2023-01-15T10:28:52;0;0;
69350;PMS7003;57106;51.446;-2.606;2023-01-15T10:31:11;2;1;
69350;PMS7003;57106;51.446;-2.606;2023-01-15T10:33:40;2;1;
69350;PMS7003;57106;51.446;-2.606;2023-01-15T10:36:00;0;0;
69350;PMS7003;57106;51.446;-2.606;2023-01-15T10:38:26;2;0;
69350;PMS7003;57106;51.446;-2.606;2023-01-15T10:43:18;0;0;
69350;PMS7003;57106;51.446;-2.606;2023-01-15T10:45:43;1;0;
69350;PMS7003;57106;51.446;-2.606;2023-01-15T10:48:10;1;1;
69350;PMS7003;57106;51.446;-2.606;2023-01-15T10:50:40;0;0;
69350;PMS7003;57106;51.446;-2.606;2023-01-15T10:55:25;0;0;
69350;PMS7003;57106;51.446;-2.606;2023-01-15T10:57:52;1;0;
69350;PMS7003;57106;51.446;-2.606;2023-01-15T11:00:16;1;0;
69350;PMS7003;57106;51.446;-2.606;2023-01-15T11:02:42;0;0;
69350;PMS7003;57106;51.446;-2.606;2023-01-15T11:05:10;0;0;
69350;PMS7003;57106;51.446;-2.606;2023-01-15T11:07:34;0;0;
69350;PMS7003;57106;51.446;-2.606;2023-01-15T11:09:59;1;1;
69350;PMS7003;57106;51.446;-2.606;2023-01-15T11:12:25;2;1;
69350;PMS7003;57106;51.446;-2.606;2023-01-15T11:14:50;2;1;
69350;PMS7003;57106;51.446;-2.606;2023-01-15T11:19:41;2;2;
69350;PMS7003;57106;51.446;-2.606;2023-01-15T11:22:10;3;1;
69350;PMS7003;57106;51.446;-2.606;2023-01-15T11:24:33;3;1;
69350;PMS7003;57106;51.446;-2.606;2023-01-15T11:26:58;3;1;
69350;PMS7003;57106;51.446;-2.606;2023-01-15T11:29:26;2;2;
69350;PMS7003;57106;51.446;-2.606;2023-01-15T11:31:49;3;2;
69350;PMS7003;57106;51.446;-2.606;2023-01-15T11:34:17;1;1;
69350;PMS7003;57106;51.446;-2.606;2023-01-15T11:36:41;1;1;
69350;PMS7003;57106;51.446;-2.606;2023-01-15T11:41:33;2;1;
69350;PMS7003;57106;51.446;-2.606;2023-01-15T11:43:58;1;0;
69350;PMS7003;57106;51.446;-2.606;2023-01-15T11:46:24;1;1;
69350;PMS7003;57106;51.446;-2.606;2023-01-15T11:48:49;1;1;
69350;PMS7003;57106;51.446;-2.606;2023-01-15T11:51:14;0;0;
69350;PMS7003;57106;51.446;-2.606;2023-01-15T11:53:40;1;0;
69350;PMS7003;57106;51.446;-2.606;2023-01-15T11:56:08;3;0;
69350;PMS7003;57106;51.446;-2.606;2023-01-15T11:58:32;0;0;
69350;PMS7003;57106;51.446;-2.606;2023-01-15T12:00:57;0;0;
69350;PMS7003;57106;51.446;-2.606;2023-01-15T12:03:23;0;0;
69350;PMS7003;57106;51.446;-2.606;2023-01-15T12:05:52;2;1;
69350;PMS7003;57106;51.446;-2.606;2023-01-15T12:08:16;0;0;
69350;PMS7003;57106;51.446;-2.606;2023-01-15T12:10:40;2;0;
69350;PMS7003;57106;51.446;-2.606;2023-01-15T12:13:06;0;0;
69350;PMS7003;57106;51.446;-2.606;2023-01-15T12:15:33;3;1;
69350;PMS7003;57106;51.446;-2.606;2023-01-15T12:18:01;1;1;
69350;PMS7003;57106;51.446;-2.606;2023-01-15T12:20:23;0;0;
69350;PMS7003;57106;51.446;-2.606;2023-01-15T12:22:52;0;0;
69350;PMS7003;57106;51.446;-2.606;2023-01-15T12:25:16;1;0;
69350;PMS7003;57106;51.446;-2.606;2023-01-15T12:30:05;1;0;
69350;PMS7003;57106;51.446;-2.606;2023-01-15T12:32:30;0;0;
69350;PMS7003;57106;51.446;-2.606;2023-01-15T12:34:56;1;1;
69350;PMS7003;57106;51.446;-2.606;2023-01-15T12:37:22;0;0;
69350;PMS7003;57106;51.446;-2.606;2023-01-15T12:39:47;0;0;
69350;PMS7003;57106;51.446;-2.606;2023-01-15T12:42:15;1;1;
69350;PMS7003;57106;51.446;-2.606;2023-01-15T12:44:39;1;0;
69350;PMS7003;57106;51.446;-2.606;2023-01-15T12:47:05;2;1;
69350;PMS7003;57106;51.446;-2.606;2023-01-15T12:49:30;0;0;
69350;PMS7003;57106;51.446;-2.606;2023-01-15T12:51:56;1;0;
69350;PMS7003;57106;51.446;-2.606;2023-01-15T12:54:22;2;1;
69350;PMS7003;57106;51.446;-2.606;2023-01-15T12:56:47;2;2;
69350;PMS7003;57106;51.446;-2.606;2023-01-15T12:59:13;1;0;
69350;PMS7003;57106;51.446;-2.606;2023-01-15T13:01:41;2;1;
69350;PMS7003;57106;51.446;-2.606;2023-01-15T13:04:07;2;2;
69350;PMS7003;57106;51.446;-2.606;2023-01-15T13:06:29;2;2;
69350;PMS7003;57106;51.446;-2.606;2023-01-15T13:08:55;1;1;
69350;PMS7003;57106;51.446;-2.606;2023-01-15T13:11:20;4;4;
69350;PMS7003;57106;51.446;-2.606;2023-01-15T13:13:45;3;3;
69350;PMS7003;57106;51.446;-2.606;2023-01-15T13:16:13;5;4;
69350;PMS7003;57106;51.446;-2.606;2023-01-15T13:18:39;3;2;
69350;PMS7003;57106;51.446;-2.606;2023-01-15T13:21:03;0;0;
69350;PMS7003;57106;51.446;-2.606;2023-01-15T13:23:33;0;0;
69350;PMS7003;57106;51.446;-2.606;2023-01-15T13:25:57;1;0;
69350;PMS7003;57106;51.446;-2.606;2023-01-15T13:30:50;0;0;
69350;PMS7003;57106;51.446;-2.606;2023-01-15T13:33:15;1;0;
69350;PMS7003;57106;51.446;-2.606;2023-01-15T13:35:38;1;1;
69350;PMS7003;57106;51.446;-2.606;2023-01-15T13:38:02;2;2;
69350;PMS7003;57106;51.446;-2.606;2023-01-15T13:40:28;3;2;
69350;PMS7003;57106;51.446;-2.606;2023-01-15T13:42:53;3;1;
69350;PMS7003;57106;51.446;-2.606;2023-01-15T13:45:20;1;1;
69350;PMS7003;57106;51.446;-2.606;2023-01-15T13:47:45;3;1;
69350;PMS7003;57106;51.446;-2.606;2023-01-15T13:50:12;3;1;
69350;PMS7003;57106;51.446;-2.606;2023-01-15T13:52:36;1;1;
69350;PMS7003;57106;51.446;-2.606;2023-01-15T13:57:31;2;1;
69350;PMS7003;57106;51.446;-2.606;2023-01-15T13:59:53;1;0;
69350;PMS7003;57106;51.446;-2.606;2023-01-15T14:02:24;4;1;
69350;PMS7003;57106;51.446;-2.606;2023-01-15T14:04:44;0;0;
69350;PMS7003;57106;51.446;-2.606;2023-01-15T14:09:40;1;1;
69350;PMS7003;57106;51.446;-2.606;2023-01-15T14:12:06;4;1;
69350;PMS7003;57106;51.446;-2.606;2023-01-15T14:14:31;1;1;
69350;PMS7003;57106;51.446;-2.606;2023-01-15T14:16:54;1;0;
69350;PMS7003;57106;51.446;-2.606;2023-01-15T14:21:46;2;1;
69350;PMS7003;57106;51.446;-2.606;2023-01-15T14:24:14;0;0;
69350;PMS7003;57106;51.446;-2.606;2023-01-15T14:29:02;2;1;
69350;PMS7003;57106;51.446;-2.606;2023-01-15T14:31:28;2;1;
69350;PMS7003;57106;51.446;-2.606;2023-01-15T14:33:55;2;1;
69350;PMS7003;57106;51.446;-2.606;2023-01-15T14:36:18;0;0;
69350;PMS7003;57106;51.446;-2.606;2023-01-15T14:38:44;4;2;
69350;PMS7003;57106;51.446;-2.606;2023-01-15T14:41:08;4;1;
69350;PMS7003;57106;51.446;-2.606;2023-01-15T14:43:34;3;1;
69350;PMS7003;57106;51.446;-2.606;2023-01-15T14:50:51;1;0;
69350;PMS7003;57106;51.446;-2.606;2023-01-15T14:53:24;1;1;
69350;PMS7003;57106;51.446;-2.606;2023-01-15T14:55:44;1;0;
69350;PMS7003;57106;51.446;-2.606;2023-01-15T14:58:12;1;0;
69350;PMS7003;57106;51.446;-2.606;2023-01-15T15:00:34;1;1;
69350;PMS7003;57106;51.446;-2.606;2023-01-15T15:02:59;0;0;
69350;PMS7003;57106;51.446;-2.606;2023-01-15T15:05:25;4;1;
69350;PMS7003;57106;51.446;-2.606;2023-01-15T15:07:50;0;0;
69350;PMS7003;57106;51.446;-2.606;2023-01-15T15:10:18;2;1;
69350;PMS7003;57106;51.446;-2.606;2023-01-15T15:12:42;0;0;
69350;PMS7003;57106;51.446;-2.606;2023-01-15T15:15:09;1;1;
69350;PMS7003;57106;51.446;-2.606;2023-01-15T15:17:36;2;1;
69350;PMS7003;57106;51.446;-2.606;2023-01-15T15:20:01;2;1;
69350;PMS7003;57106;51.446;-2.606;2023-01-15T15:22:24;1;0;
69350;PMS7003;57106;51.446;-2.606;2023-01-15T15:24:55;1;1;
69350;PMS7003;57106;51.446;-2.606;2023-01-15T15:27:15;0;0;
69350;PMS7003;57106;51.446;-2.606;2023-01-15T15:29:41;0;0;
69350;PMS7003;57106;51.446;-2.606;2023-01-15T15:32:07;1;0;
69350;PMS7003;57106;51.446;-2.606;2023-01-15T15:34:33;1;1;
69350;PMS7003;57106;51.446;-2.606;2023-01-15T15:36:58;0;0;
69350;PMS7003;57106;51.446;-2.606;2023-01-15T15:39:24;1;0;
69350;PMS7003;57106;51.446;-2.606;2023-01-15T15:41:50;0;0;
69350;PMS7003;57106;51.446;-2.606;2023-01-15T15:44:16;0;0;
69350;PMS7003;57106;51.446;-2.606;2023-01-15T15:46:46;2;1;
69350;PMS7003;57106;51.446;-2.606;2023-01-15T15:49:07;0;0;
69350;PMS7003;57106;51.446;-2.606;2023-01-15T15:51:33;1;0;
69350;PMS7003;57106;51.446;-2.606;2023-01-15T15:54:03;2;1;
69350;PMS7003;57106;51.446;-2.606;2023-01-15T15:56:23;1;1;
69350;PMS7003;57106;51.446;-2.606;2023-01-15T15:58:49;1;1;
69350;PMS7003;57106;51.446;-2.606;2023-01-15T16:01:15;1;1;
69350;PMS7003;57106;51.446;-2.606;2023-01-15T16:03:44;2;2;
69350;PMS7003;57106;51.446;-2.606;2023-01-15T16:06:06;1;1;
69350;PMS7003;57106;51.446;-2.606;2023-01-15T16:08:32;1;1;
69350;PMS7003;57106;51.446;-2.606;2023-01-15T16:10:58;14;8;
69350;PMS7003;57106;51.446;-2.606;2023-01-15T16:13:24;5;2;
69350;PMS7003;57106;51.446;-2.606;2023-01-15T16:15:49;71;46;
69350;PMS7003;57106;51.446;-2.606;2023-01-15T16:18:17;10;9;
69350;PMS7003;57106;51.446;-2.606;2023-01-15T16:20:39;51;42;
69350;PMS7003;57106;51.446;-2.606;2023-01-15T16:25:31;14;9;
69350;PMS7003;57106;51.446;-2.606;2023-01-15T16:27:59;3;2;
69350;PMS7003;57106;51.446;-2.606;2023-01-15T16:30:21;14;10;
69350;PMS7003;57106;51.446;-2.606;2023-01-15T16:32:47;71;65;
69350;PMS7003;57106;51.446;-2.606;2023-01-15T16:35:14;28;27;
69350;PMS7003;57106;51.446;-2.606;2023-01-15T16:37:38;14;11;
69350;PMS7003;57106;51.446;-2.606;2023-01-15T16:40:03;6;5;
69350;PMS7003;57106;51.446;-2.606;2023-01-15T16:42:31;19;18;
69350;PMS7003;57106;51.446;-2.606;2023-01-15T16:44:55;15;11;
69350;PMS7003;57106;51.446;-2.606;2023-01-15T16:47:20;32;25;
69350;PMS7003;57106;51.446;-2.606;2023-01-15T16:49:45;33;29;
69350;PMS7003;57106;51.446;-2.606;2023-01-15T16:54:40;40;36;
69350;PMS7003;57106;51.446;-2.606;2023-01-15T16:57:01;39;32;
69350;PMS7003;57106;51.446;-2.606;2023-01-15T17:01:52;93;86;
69350;PMS7003;57106;51.446;-2.606;2023-01-15T17:04:19;89;85;
69350;PMS7003;57106;51.446;-2.606;2023-01-15T17:06:42;27;25;
69350;PMS7003;57106;51.446;-2.606;2023-01-15T17:09:09;51;50;
69350;PMS7003;57106;51.446;-2.606;2023-01-15T17:11:33;32;29;
69350;PMS7003;57106;51.446;-2.606;2023-01-15T17:16:24;16;13;